Fillmore, CA (93016)

9:40 AM PST on February 24, 2017 (GMT -0800)
North Fillmore | | Change Station

Elev 440 ft 34.41 °N, 118.93 °W | Updated 28 seconds ago

Clear
Clear
56.7 °F
Feels Like 56.7 °F
N
1.0
Wind Variable Wind from ENE

Today
High -- | Low -- °F
--% Chance of Precip.
Yesterday
High -- | Low -- °F
Precip. -- in
Pressure 30.22 in
Visibility 10.0 miles
Clouds Clear
Dew Point 32 °F
Humidity 40%
Rainfall 0.00 in
Snow Depth Not available.
6:30 AM 5:47 PM
Waning Crescent, 4% visible
METAR KCMA 241655Z 04006KT 10SM CLR 11/M01 A3020 RMK AO2 SLP234 T01111011
Pressure 30.22 in
Visibility 10.0 miles
Clouds Clear
Dew Point 32 °F
Humidity 40%
Rainfall 0.00 in
Snow Depth Not available.
6:30 AM 5:47 PM
Waning Crescent, 4% visible
METAR KCMA 241655Z 04006KT 10SM CLR 11/M01 A3020 RMK AO2 SLP234 T01111011

Get Your Daily Forecast Email!

Thanks for signing up!

Be on the lookout for a verification email in your inbox.

You'll start receiving the daily forecast at 8 AM.

×

10-Day Weather Forecast

Almanac

Astronomy

Feb. 24, 2017 Rise Set
Actual Time
Civil Twilight
Nautical Twilight
Astronomical Twilight
Moon
Length of Visible Light
Length of Day
Tomorrow will be .
, % of the Moon is Illuminated

Today's Extremes

State Highs State Lows

Community

WunderPhotos

Upload Photos

1,962,540 photos uploaded!

WunderBlog® & News

Nearby

Air Quality

  Air Quality AQ Index Pollutant
Not available.

Snow Depth

Station Depth Elevation

Earthquake Activity

City Distance Mag. Time & Date
Minimum magnitude displayed is 2.5.

Coastal Water Temperatures

Place Temperature

Stations

Nearby Weather Stations

Station Location Temp. Windchill Dew Point Humidity Wind Precip. Elev Updated Type
                   

Watches & Warnings

There are currently no watches in effect.